sensor_id;sensor_type;location;lat;lon;timestamp;temperature;humidity
70421;SHT31;57848;51.938;15.520;2024-03-23T00:55:19;10.65;95.22
70421;SHT31;57848;51.938;15.520;2024-03-23T00:57:44;10.63;95.17
70421;SHT31;57848;51.938;15.520;2024-03-23T01:00:10;10.69;94.47
70421;SHT31;57848;51.938;15.520;2024-03-23T01:02:36;10.73;94.03
70421;SHT31;57848;51.938;15.520;2024-03-23T01:05:02;10.68;94.72
70421;SHT31;57848;51.938;15.520;2024-03-23T01:07:27;10.61;94.67
70421;SHT31;57848;51.938;15.520;2024-03-23T01:09:52;10.68;94.93
70421;SHT31;57848;51.938;15.520;2024-03-23T01:12:18;10.71;94.62
70421;SHT31;57848;51.938;15.520;2024-03-23T01:14:43;10.72;94.76
70421;SHT31;57848;51.938;15.520;2024-03-23T01:17:09;10.76;94.88
70421;SHT31;57848;51.938;15.520;2024-03-23T01:19:34;10.75;94.92
70421;SHT31;57848;51.938;15.520;2024-03-23T01:22:00;10.73;95.03
70421;SHT31;57848;51.938;15.520;2024-03-23T01:24:25;10.73;94.99
70421;SHT31;57848;51.938;15.520;2024-03-23T01:26:50;10.72;95.07
70421;SHT31;57848;51.938;15.520;2024-03-23T01:29:16;10.72;95.26
70421;SHT31;57848;51.938;15.520;2024-03-23T01:31:41;10.76;95.22
70421;SHT31;57848;51.938;15.520;2024-03-23T01:34:06;10.69;95.42
70421;SHT31;57848;51.938;15.520;2024-03-23T01:36:32;10.66;95.41
70421;SHT31;57848;51.938;15.520;2024-03-23T01:38:58;10.62;95.73
70421;SHT31;57848;51.938;15.520;2024-03-23T01:41:24;10.75;95.23
70421;SHT31;57848;51.938;15.520;2024-03-23T01:43:49;10.76;95.33
70421;SHT31;57848;51.938;15.520;2024-03-23T01:46:15;10.73;95.46
70421;SHT31;57848;51.938;15.520;2024-03-23T01:48:41;10.76;95.26
70421;SHT31;57848;51.938;15.520;2024-03-23T01:51:07;10.72;95.42
70421;SHT31;57848;51.938;15.520;2024-03-23T01:53:33;10.76;95.05
70421;SHT31;57848;51.938;15.520;2024-03-23T01:55:58;10.75;95.14
70421;SHT31;57848;51.938;15.520;2024-03-23T01:58:23;10.82;95.12
70421;SHT31;57848;51.938;15.520;2024-03-23T02:00:49;10.77;95.20
70421;SHT31;57848;51.938;15.520;2024-03-23T02:03:24;10.80;95.21
70421;SHT31;57848;51.938;15.520;2024-03-23T02:05:50;10.80;94.97
70421;SHT31;57848;51.938;15.520;2024-03-23T02:08:17;10.85;94.60
70421;SHT31;57848;51.938;15.520;2024-03-23T02:10:43;10.83;94.90
70421;SHT31;57848;51.938;15.520;2024-03-23T02:13:09;10.83;94.68
70421;SHT31;57848;51.938;15.520;2024-03-23T02:15:34;10.79;94.80
70421;SHT31;57848;51.938;15.520;2024-03-23T02:17:59;10.79;94.94
70421;SHT31;57848;51.938;15.520;2024-03-23T02:20:24;10.83;94.76
70421;SHT31;57848;51.938;15.520;2024-03-23T02:22:52;10.76;94.85
70421;SHT31;57848;51.938;15.520;2024-03-23T02:25:18;10.85;94.43
70421;SHT31;57848;51.938;15.520;2024-03-23T02:27:43;10.83;94.32
70421;SHT31;57848;51.938;15.520;2024-03-23T02:30:08;10.76;94.47
70421;SHT31;57848;51.938;15.520;2024-03-23T02:32:34;10.80;94.43
70421;SHT31;57848;51.938;15.520;2024-03-23T02:34:59;10.86;94.55
70421;SHT31;57848;51.938;15.520;2024-03-23T02:37:24;10.80;94.47
70421;SHT31;57848;51.938;15.520;2024-03-23T02:39:50;10.68;94.50
70421;SHT31;57848;51.938;15.520;2024-03-23T02:42:15;10.77;94.89
70421;SHT31;57848;51.938;15.520;2024-03-23T02:44:43;10.80;94.83
70421;SHT31;57848;51.938;15.520;2024-03-23T02:47:08;10.85;94.83
70421;SHT31;57848;51.938;15.520;2024-03-23T02:49:33;10.76;94.69
70421;SHT31;57848;51.938;15.520;2024-03-23T02:51:59;10.75;94.56
70421;SHT31;57848;51.938;15.520;2024-03-23T02:54:24;10.69;95.01
70421;SHT31;57848;51.938;15.520;2024-03-23T02:56:49;10.61;94.83
70421;SHT31;57848;51.938;15.520;2024-03-23T02:59:15;10.61;94.68
70421;SHT31;57848;51.938;15.520;2024-03-23T03:01:40;10.58;95.08
70421;SHT31;57848;51.938;15.520;2024-03-23T03:04:05;10.51;95.09
70421;SHT31;57848;51.938;15.520;2024-03-23T03:06:31;10.42;95.45
70421;SHT31;57848;51.938;15.520;2024-03-23T03:08:56;10.44;95.41
70421;SHT31;57848;51.938;15.520;2024-03-23T03:11:22;10.44;95.30
70421;SHT31;57848;51.938;15.520;2024-03-23T03:13:47;10.41;95.54
70421;SHT31;57848;51.938;15.520;2024-03-23T03:16:13;10.42;95.86
70421;SHT31;57848;51.938;15.520;2024-03-23T03:18:38;10.37;95.65
70421;SHT31;57848;51.938;15.520;2024-03-23T03:21:05;10.42;95.84
70421;SHT31;57848;51.938;15.520;2024-03-23T03:23:33;10.42;95.57
70421;SHT31;57848;51.938;15.520;2024-03-23T03:25:59;10.41;95.87
70421;SHT31;57848;51.938;15.520;2024-03-23T03:28:24;10.37;95.68
70421;SHT31;57848;51.938;15.520;2024-03-23T03:30:51;10.42;95.46
70421;SHT31;57848;51.938;15.520;2024-03-23T03:33:16;10.34;95.52
70421;SHT31;57848;51.938;15.520;2024-03-23T03:35:42;10.25;95.51
70421;SHT31;57848;51.938;15.520;2024-03-23T03:38:08;10.21;95.84
70421;SHT31;57848;51.938;15.520;2024-03-23T03:40:33;10.15;96.00
70421;SHT31;57848;51.938;15.520;2024-03-23T03:42:59;9.98;94.13
70421;SHT31;57848;51.938;15.520;2024-03-23T03:45:24;9.69;93.21
70421;SHT31;57848;51.938;15.520;2024-03-23T03:47:50;9.47;93.41
70421;SHT31;57848;51.938;15.520;2024-03-23T03:50:15;9.29;93.55
70421;SHT31;57848;51.938;15.520;2024-03-23T03:52:40;9.14;93.70
70421;SHT31;57848;51.938;15.520;2024-03-23T03:55:13;9.11;93.96
70421;SHT31;57848;51.938;15.520;2024-03-23T03:57:38;9.03;93.66
70421;SHT31;57848;51.938;15.520;2024-03-23T04:00:04;8.91;93.76
70421;SHT31;57848;51.938;15.520;2024-03-23T04:02:30;8.85;92.97
70421;SHT31;57848;51.938;15.520;2024-03-23T04:04:55;8.83;93.12
70421;SHT31;57848;51.938;15.520;2024-03-23T04:07:21;8.74;93.14
70421;SHT31;57848;51.938;15.520;2024-03-23T04:09:48;8.67;93.42
70421;SHT31;57848;51.938;15.520;2024-03-23T04:12:13;8.73;93.11
70421;SHT31;57848;51.938;15.520;2024-03-23T04:14:39;8.68;92.86
70421;SHT31;57848;51.938;15.520;2024-03-23T04:17:04;8.64;92.72
70421;SHT31;57848;51.938;15.520;2024-03-23T04:19:29;8.70;92.78
70421;SHT31;57848;51.938;15.520;2024-03-23T04:21:55;8.59;92.82
70421;SHT31;57848;51.938;15.520;2024-03-23T04:24:20;8.61;93.33
70421;SHT31;57848;51.938;15.520;2024-03-23T04:26:47;8.57;92.58
70421;SHT31;57848;51.938;15.520;2024-03-23T04:29:12;8.49;93.04
70421;SHT31;57848;51.938;15.520;2024-03-23T04:31:38;8.66;92.47
70421;SHT31;57848;51.938;15.520;2024-03-23T04:34:03;8.59;92.55
70421;SHT31;57848;51.938;15.520;2024-03-23T04:36:29;8.67;92.40
70421;SHT31;57848;51.938;15.520;2024-03-23T04:38:56;8.60;91.93
70421;SHT31;57848;51.938;15.520;2024-03-23T04:41:22;8.63;92.43
70421;SHT31;57848;51.938;15.520;2024-03-23T04:43:47;8.59;92.27
70421;SHT31;57848;51.938;15.520;2024-03-23T04:46:12;8.64;92.59
70421;SHT31;57848;51.938;15.520;2024-03-23T04:48:38;8.60;91.72
70421;SHT31;57848;51.938;15.520;2024-03-23T04:51:03;8.68;91.35
70421;SHT31;57848;51.938;15.520;2024-03-23T04:53:29;8.57;91.51
70421;SHT31;57848;51.938;15.520;2024-03-23T04:55:55;8.53;91.69
70421;SHT31;57848;51.938;15.520;2024-03-23T04:58:22;8.47;91.75
70421;SHT31;57848;51.938;15.520;2024-03-23T05:00:53;8.49;91.98
70421;SHT31;57848;51.938;15.520;2024-03-23T05:03:19;8.46;91.75
70421;SHT31;57848;51.938;15.520;2024-03-23T05:05:46;8.47;91.42
70421;SHT31;57848;51.938;15.520;2024-03-23T05:08:11;8.39;91.99
70421;SHT31;57848;51.938;15.520;2024-03-23T05:10:37;8.56;92.26
70421;SHT31;57848;51.938;15.520;2024-03-23T05:13:03;8.53;92.10
70421;SHT31;57848;51.938;15.520;2024-03-23T05:15:28;8.53;92.26
70421;SHT31;57848;51.938;15.520;2024-03-23T05:17:55;8.46;92.29
70421;SHT31;57848;51.938;15.520;2024-03-23T05:20:20;8.50;92.73
70421;SHT31;57848;51.938;15.520;2024-03-23T05:22:46;8.40;92.50
70421;SHT31;57848;51.938;15.520;2024-03-23T05:25:12;8.44;92.74
70421;SHT31;57848;51.938;15.520;2024-03-23T05:27:37;8.43;92.28
70421;SHT31;57848;51.938;15.520;2024-03-23T05:30:03;8.46;92.50
70421;SHT31;57848;51.938;15.520;2024-03-23T05:32:29;8.56;92.62
70421;SHT31;57848;51.938;15.520;2024-03-23T05:34:54;8.68;92.77
70421;SHT31;57848;51.938;15.520;2024-03-23T05:37:22;8.53;92.09
70421;SHT31;57848;51.938;15.520;2024-03-23T05:39:48;8.54;93.30
70421;SHT31;57848;51.938;15.520;2024-03-23T05:42:16;8.60;92.95
70421;SHT31;57848;51.938;15.520;2024-03-23T05:44:45;8.60;92.76
70421;SHT31;57848;51.938;15.520;2024-03-23T05:47:11;8.57;93.03
70421;SHT31;57848;51.938;15.520;2024-03-23T05:49:38;8.61;92.62
70421;SHT31;57848;51.938;15.520;2024-03-23T05:52:03;8.70;92.58
70421;SHT31;57848;51.938;15.520;2024-03-23T05:54:29;8.63;92.78
70421;SHT31;57848;51.938;15.520;2024-03-23T05:56:55;8.67;92.47
70421;SHT31;57848;51.938;15.520;2024-03-23T05:59:20;8.68;92.52
70421;SHT31;57848;51.938;15.520;2024-03-23T06:01:47;8.71;91.95
70421;SHT31;57848;51.938;15.520;2024-03-23T06:04:12;8.71;92.65
70421;SHT31;57848;51.938;15.520;2024-03-23T06:06:39;8.75;92.39
70421;SHT31;57848;51.938;15.520;2024-03-23T06:09:04;8.81;92.60
70421;SHT31;57848;51.938;15.520;2024-03-23T06:11:30;8.78;91.58
70421;SHT31;57848;51.938;15.520;2024-03-23T06:13:55;8.84;91.48
70421;SHT31;57848;51.938;15.520;2024-03-23T06:16:21;8.85;91.65
70421;SHT31;57848;51.938;15.520;2024-03-23T06:18:50;8.88;90.89
70421;SHT31;57848;51.938;15.520;2024-03-23T06:21:15;8.83;90.41
70421;SHT31;57848;51.938;15.520;2024-03-23T06:23:41;8.81;91.04
70421;SHT31;57848;51.938;15.520;2024-03-23T06:26:07;8.89;91.25
70421;SHT31;57848;51.938;15.520;2024-03-23T06:28:32;8.84;90.92
70421;SHT31;57848;51.938;15.520;2024-03-23T06:30:57;8.94;91.30
70421;SHT31;57848;51.938;15.520;2024-03-23T06:33:23;8.95;91.47
70421;SHT31;57848;51.938;15.520;2024-03-23T06:35:52;8.98;91.68
70421;SHT31;57848;51.938;15.520;2024-03-23T06:38:18;8.85;90.59
70421;SHT31;57848;51.938;15.520;2024-03-23T06:40:44;9.01;91.17
70421;SHT31;57848;51.938;15.520;2024-03-23T06:43:15;9.01;91.29
70421;SHT31;57848;51.938;15.520;2024-03-23T06:45:41;9.10;90.69
70421;SHT31;57848;51.938;15.520;2024-03-23T06:48:06;9.15;91.11
70421;SHT31;57848;51.938;15.520;2024-03-23T06:50:33;9.24;90.92
70421;SHT31;57848;51.938;15.520;2024-03-23T06:52:59;9.36;90.97
70421;SHT31;57848;51.938;15.520;2024-03-23T06:55:24;9.35;90.91
70421;SHT31;57848;51.938;15.520;2024-03-23T06:57:52;9.42;90.24
70421;SHT31;57848;51.938;15.520;2024-03-23T07:00:17;9.53;89.86
70421;SHT31;57848;51.938;15.520;2024-03-23T07:02:43;9.52;89.35
70421;SHT31;57848;51.938;15.520;2024-03-23T07:05:09;9.62;89.99
70421;SHT31;57848;51.938;15.520;2024-03-23T07:07:36;9.64;89.46
70421;SHT31;57848;51.938;15.520;2024-03-23T07:10:01;9.56;89.45
70421;SHT31;57848;51.938;15.520;2024-03-23T07:12:27;9.60;88.50
70421;SHT31;57848;51.938;15.520;2024-03-23T07:14:52;9.55;88.71
70421;SHT31;57848;51.938;15.520;2024-03-23T07:17:17;9.45;89.16
70421;SHT31;57848;51.938;15.520;2024-03-23T07:19:43;9.42;88.69
70421;SHT31;57848;51.938;15.520;2024-03-23T07:22:09;9.32;88.60
70421;SHT31;57848;51.938;15.520;2024-03-23T07:24:34;9.19;88.90
70421;SHT31;57848;51.938;15.520;2024-03-23T07:26:59;9.28;89.07
70421;SHT31;57848;51.938;15.520;2024-03-23T07:29:25;9.24;89.57
70421;SHT31;57848;51.938;15.520;2024-03-23T07:31:50;9.25;89.35
70421;SHT31;57848;51.938;15.520;2024-03-23T07:34:15;9.16;89.44
70421;SHT31;57848;51.938;15.520;2024-03-23T07:36:41;9.10;90.14
70421;SHT31;57848;51.938;15.520;2024-03-23T07:39:06;9.07;89.96
70421;SHT31;57848;51.938;15.520;2024-03-23T07:41:33;9.07;89.86
70421;SHT31;57848;51.938;15.520;2024-03-23T07:43:58;9.01;89.96
70421;SHT31;57848;51.938;15.520;2024-03-23T07:46:24;9.00;90.03
70421;SHT31;57848;51.938;15.520;2024-03-23T07:48:51;8.92;90.06
70421;SHT31;57848;51.938;15.520;2024-03-23T07:51:18;8.91;90.55
70421;SHT31;57848;51.938;15.520;2024-03-23T07:53:44;8.97;90.50
70421;SHT31;57848;51.938;15.520;2024-03-23T07:56:11;9.00;89.97
70421;SHT31;57848;51.938;15.520;2024-03-23T07:58:37;8.89;90.08
70421;SHT31;57848;51.938;15.520;2024-03-23T08:01:22;8.94;90.61
70421;SHT31;57848;51.938;15.520;2024-03-23T08:03:49;8.98;90.72
70421;SHT31;57848;51.938;15.520;2024-03-23T08:06:19;8.91;90.86
70421;SHT31;57848;51.938;15.520;2024-03-23T08:08:46;8.88;91.20
70421;SHT31;57848;51.938;15.520;2024-03-23T08:11:12;8.97;91.06
70421;SHT31;57848;51.938;15.520;2024-03-23T08:13:42;9.03;90.37
70421;SHT31;57848;51.938;15.520;2024-03-23T08:16:07;9.00;90.20
70421;SHT31;57848;51.938;15.520;2024-03-23T08:18:34;8.89;90.32
70421;SHT31;57848;51.938;15.520;2024-03-23T08:21:01;8.94;90.45
70421;SHT31;57848;51.938;15.520;2024-03-23T08:23:28;8.92;90.47
70421;SHT31;57848;51.938;15.520;2024-03-23T08:26:00;8.97;90.35
70421;SHT31;57848;51.938;15.520;2024-03-23T08:28:26;8.87;90.11
70421;SHT31;57848;51.938;15.520;2024-03-23T08:30:53;8.91;90.06
70421;SHT31;57848;51.938;15.520;2024-03-23T08:33:18;8.92;89.83
70421;SHT31;57848;51.938;15.520;2024-03-23T08:35:56;8.89;90.50
70421;SHT31;57848;51.938;15.520;2024-03-23T08:38:22;8.88;90.70
70421;SHT31;57848;51.938;15.520;2024-03-23T08:40:55;8.85;91.12
70421;SHT31;57848;51.938;15.520;2024-03-23T08:43:21;8.78;90.90
70421;SHT31;57848;51.938;15.520;2024-03-23T08:45:46;8.78;90.68
70421;SHT31;57848;51.938;15.520;2024-03-23T08:48:11;8.75;90.95
70421;SHT31;57848;51.938;15.520;2024-03-23T08:50:37;8.78;91.17
70421;SHT31;57848;51.938;15.520;2024-03-23T08:53:02;8.78;91.35
70421;SHT31;57848;51.938;15.520;2024-03-23T08:55:28;8.77;91.57
70421;SHT31;57848;51.938;15.520;2024-03-23T08:57:53;8.77;91.87
70421;SHT31;57848;51.938;15.520;2024-03-23T09:00:18;8.75;92.50
70421;SHT31;57848;51.938;15.520;2024-03-23T09:02:47;8.91;92.17
70421;SHT31;57848;51.938;15.520;2024-03-23T09:05:13;8.95;92.26
70421;SHT31;57848;51.938;15.520;2024-03-23T09:07:38;8.87;91.64
70421;SHT31;57848;51.938;15.520;2024-03-23T09:10:03;8.91;91.93
70421;SHT31;57848;51.938;15.520;2024-03-23T09:12:29;8.89;92.25
70421;SHT31;57848;51.938;15.520;2024-03-23T09:14:54;8.98;92.22
70421;SHT31;57848;51.938;15.520;2024-03-23T09:17:19;9.03;91.67
70421;SHT31;57848;51.938;15.520;2024-03-23T09:19:45;9.03;91.82
70421;SHT31;57848;51.938;15.520;2024-03-23T09:22:10;9.05;91.88
70421;SHT31;57848;51.938;15.520;2024-03-23T09:24:35;9.04;92.45
70421;SHT31;57848;51.938;15.520;2024-03-23T09:27:01;9.00;92.10
70421;SHT31;57848;51.938;15.520;2024-03-23T09:29:28;9.00;92.33
70421;SHT31;57848;51.938;15.520;2024-03-23T09:31:53;9.07;92.55
70421;SHT31;57848;51.938;15.520;2024-03-23T09:34:19;9.10;91.94
70421;SHT31;57848;51.938;15.520;2024-03-23T09:36:44;9.08;92.17
70421;SHT31;57848;51.938;15.520;2024-03-23T09:39:10;9.16;92.13
70421;SHT31;57848;51.938;15.520;2024-03-23T09:41:36;9.31;92.13
70421;SHT31;57848;51.938;15.520;2024-03-23T09:44:02;9.29;92.23
70421;SHT31;57848;51.938;15.520;2024-03-23T09:46:27;9.39;91.98
70421;SHT31;57848;51.938;15.520;2024-03-23T09:48:55;9.59;91.76
70421;SHT31;57848;51.938;15.520;2024-03-23T09:51:21;9.76;91.45
70421;SHT31;57848;51.938;15.520;2024-03-23T09:53:49;9.91;90.94
70421;SHT31;57848;51.938;15.520;2024-03-23T09:56:15;9.91;91.40
70421;SHT31;57848;51.938;15.520;2024-03-23T09:58:42;9.94;90.20
70421;SHT31;57848;51.938;15.520;2024-03-23T10:01:07;9.74;90.19
70421;SHT31;57848;51.938;15.520;2024-03-23T10:03:45;9.76;91.04
70421;SHT31;57848;51.938;15.520;2024-03-23T10:06:11;9.72;91.24
70421;SHT31;57848;51.938;15.520;2024-03-23T10:08:36;9.67;90.80
70421;SHT31;57848;51.938;15.520;2024-03-23T10:11:15;9.60;91.31
70421;SHT31;57848;51.938;15.520;2024-03-23T10:13:42;9.67;91.18
70421;SHT31;57848;51.938;15.520;2024-03-23T10:16:08;9.64;90.90
70421;SHT31;57848;51.938;15.520;2024-03-23T10:18:38;9.60;90.66
70421;SHT31;57848;51.938;15.520;2024-03-23T10:21:09;9.57;91.47
70421;SHT31;57848;51.938;15.520;2024-03-23T10:23:39;9.62;91.34
70421;SHT31;57848;51.938;15.520;2024-03-23T10:29:00;9.49;92.02
70421;SHT31;57848;51.938;15.520;2024-03-23T10:31:36;9.46;91.16
70421;SHT31;57848;51.938;15.520;2024-03-23T10:34:02;9.43;91.58
70421;SHT31;57848;51.938;15.520;2024-03-23T10:36:29;9.40;91.63
70421;SHT31;57848;51.938;15.520;2024-03-23T10:38:55;9.31;92.10
70421;SHT31;57848;51.938;15.520;2024-03-23T10:41:26;9.39;91.78
70421;SHT31;57848;51.938;15.520;2024-03-23T10:43:51;9.35;91.93
70421;SHT31;57848;51.938;15.520;2024-03-23T10:46:17;9.25;91.56
70421;SHT31;57848;51.938;15.520;2024-03-23T10:48:43;9.26;91.74
70421;SHT31;57848;51.938;15.520;2024-03-23T10:51:09;9.25;91.86
70421;SHT31;57848;51.938;15.520;2024-03-23T10:53:35;9.14;92.53
70421;SHT31;57848;51.938;15.520;2024-03-23T10:56:02;9.11;92.53
70421;SHT31;57848;51.938;15.520;2024-03-23T10:58:32;9.04;92.73
70421;SHT31;57848;51.938;15.520;2024-03-23T11:00:58;9.04;93.00
70421;SHT31;57848;51.938;15.520;2024-03-23T11:03:37;9.01;93.18
70421;SHT31;57848;51.938;15.520;2024-03-23T11:06:04;8.95;93.29
70421;SHT31;57848;51.938;15.520;2024-03-23T11:11:19;8.89;92.78
70421;SHT31;57848;51.938;15.520;2024-03-23T11:13:48;8.87;92.89
70421;SHT31;57848;51.938;15.520;2024-03-23T11:18:39;8.77;93.49
70421;SHT31;57848;51.938;15.520;2024-03-23T11:21:06;8.84;93.61
70421;SHT31;57848;51.938;15.520;2024-03-23T11:23:32;8.83;93.51
70421;SHT31;57848;51.938;15.520;2024-03-23T11:25:57;8.78;93.33
70421;SHT31;57848;51.938;15.520;2024-03-23T11:28:22;8.74;93.40
70421;SHT31;57848;51.938;15.520;2024-03-23T11:30:48;8.57;93.51
70421;SHT31;57848;51.938;15.520;2024-03-23T11:33:13;8.59;94.20
70421;SHT31;57848;51.938;15.520;2024-03-23T11:35:40;8.49;94.90
70421;SHT31;57848;51.938;15.520;2024-03-23T11:38:09;8.26;94.76
70421;SHT31;57848;51.938;15.520;2024-03-23T11:40:39;7.98;94.72
70421;SHT31;57848;51.938;15.520;2024-03-23T11:43:07;7.79;95.26
70421;SHT31;57848;51.938;15.520;2024-03-23T11:45:41;7.53;96.89
70421;SHT31;57848;51.938;15.520;2024-03-23T11:48:17;7.48;97.19
70421;SHT31;57848;51.938;15.520;2024-03-23T11:50:44;7.44;96.86
70421;SHT31;57848;51.938;15.520;2024-03-23T11:55:51;7.33;96.89
70421;SHT31;57848;51.938;15.520;2024-03-23T11:58:18;7.34;96.93
70421;SHT31;57848;51.938;15.520;2024-03-23T12:00:58;7.31;96.21
70421;SHT31;57848;51.938;15.520;2024-03-23T12:03:24;7.19;95.52
70421;SHT31;57848;51.938;15.520;2024-03-23T12:05:55;6.99;95.63
70421;SHT31;57848;51.938;15.520;2024-03-23T12:11:06;6.75;94.92
70421;SHT31;57848;51.938;15.520;2024-03-23T12:13:33;6.61;94.31
70421;SHT31;57848;51.938;15.520;2024-03-23T12:16:09;6.56;94.73
70421;SHT31;57848;51.938;15.520;2024-03-23T12:18:35;6.55;95.69
70421;SHT31;57848;51.938;15.520;2024-03-23T12:21:00;6.52;95.76
70421;SHT31;57848;51.938;15.520;2024-03-23T12:23:26;6.31;94.46
70421;SHT31;57848;51.938;15.520;2024-03-23T12:25:51;6.13;94.47
70421;SHT31;57848;51.938;15.520;2024-03-23T12:28:16;6.10;94.74
70421;SHT31;57848;51.938;15.520;2024-03-23T12:30:42;6.18;94.89
70421;SHT31;57848;51.938;15.520;2024-03-23T12:33:07;6.02;94.08
70421;SHT31;57848;51.938;15.520;2024-03-23T12:35:33;5.85;94.26
70421;SHT31;57848;51.938;15.520;2024-03-23T12:37:59;5.99;94.35
70421;SHT31;57848;51.938;15.520;2024-03-23T12:40:24;6.00;93.92
70421;SHT31;57848;51.938;15.520;2024-03-23T12:42:50;6.09;94.49
70421;SHT31;57848;51.938;15.520;2024-03-23T12:45:15;6.07;93.65
70421;SHT31;57848;51.938;15.520;2024-03-23T12:47:41;6.14;93.43
70421;SHT31;57848;51.938;15.520;2024-03-23T12:50:06;6.21;93.85
70421;SHT31;57848;51.938;15.520;2024-03-23T12:52:35;6.20;93.08
70421;SHT31;57848;51.938;15.520;2024-03-23T12:55:00;6.00;92.72
70421;SHT31;57848;51.938;15.520;2024-03-23T12:57:26;5.79;92.93
70421;SHT31;57848;51.938;15.520;2024-03-23T12:59:52;5.82;93.38
70421;SHT31;57848;51.938;15.520;2024-03-23T13:02:21;5.67;93.67
70421;SHT31;57848;51.938;15.520;2024-03-23T13:04:49;5.62;94.08
70421;SHT31;57848;51.938;15.520;2024-03-23T13:07:15;5.48;93.42
70421;SHT31;57848;51.938;15.520;2024-03-23T13:09:40;5.36;93.72
70421;SHT31;57848;51.938;15.520;2024-03-23T13:12:06;5.25;93.40
70421;SHT31;57848;51.938;15.520;2024-03-23T13:14:31;5.28;93.65
70421;SHT31;57848;51.938;15.520;2024-03-23T13:16:57;5.18;93.52
70421;SHT31;57848;51.938;15.520;2024-03-23T13:19:22;5.21;94.01
70421;SHT31;57848;51.938;15.520;2024-03-23T13:21:53;5.20;94.00
70421;SHT31;57848;51.938;15.520;2024-03-23T13:24:21;5.25;94.35
70421;SHT31;57848;51.938;15.520;2024-03-23T13:26:47;5.01;93.66
70421;SHT31;57848;51.938;15.520;2024-03-23T13:29:12;5.08;94.64
70421;SHT31;57848;51.938;15.520;2024-03-23T13:31:37;5.05;94.86
70421;SHT31;57848;51.938;15.520;2024-03-23T13:34:02;5.10;94.97
70421;SHT31;57848;51.938;15.520;2024-03-23T13:36:28;5.04;95.03
70421;SHT31;57848;51.938;15.520;2024-03-23T13:38:53;5.13;95.66
70421;SHT31;57848;51.938;15.520;2024-03-23T13:41:18;4.91;94.36
70421;SHT31;57848;51.938;15.520;2024-03-23T13:43:44;4.91;94.73
70421;SHT31;57848;51.938;15.520;2024-03-23T13:46:09;4.77;94.60
70421;SHT31;57848;51.938;15.520;2024-03-23T13:48:34;4.81;95.88
70421;SHT31;57848;51.938;15.520;2024-03-23T13:51:01;4.80;95.66
70421;SHT31;57848;51.938;15.520;2024-03-23T13:53:27;4.80;95.51
70421;SHT31;57848;51.938;15.520;2024-03-23T13:55:52;4.74;94.94
70421;SHT31;57848;51.938;15.520;2024-03-23T13:58:18;4.72;93.73
70421;SHT31;57848;51.938;15.520;2024-03-23T14:00:43;4.83;94.31
70421;SHT31;57848;51.938;15.520;2024-03-23T14:03:09;4.83;94.19
70421;SHT31;57848;51.938;15.520;2024-03-23T14:05:35;4.74;94.04
70421;SHT31;57848;51.938;15.520;2024-03-23T14:08:00;4.88;93.56
70421;SHT31;57848;51.938;15.520;2024-03-23T14:10:26;5.08;93.76
70421;SHT31;57848;51.938;15.520;2024-03-23T14:12:53;5.07;93.60
70421;SHT31;57848;51.938;15.520;2024-03-23T14:15:18;5.08;93.10
70421;SHT31;57848;51.938;15.520;2024-03-23T14:17:43;4.97;92.60
70421;SHT31;57848;51.938;15.520;2024-03-23T14:20:09;5.03;92.53
70421;SHT31;57848;51.938;15.520;2024-03-23T14:22:37;5.05;92.70
70421;SHT31;57848;51.938;15.520;2024-03-23T14:25:02;5.08;92.33
70421;SHT31;57848;51.938;15.520;2024-03-23T14:27:28;4.97;91.88
70421;SHT31;57848;51.938;15.520;2024-03-23T14:29:54;5.04;92.16
70421;SHT31;57848;51.938;15.520;2024-03-23T14:32:19;5.13;92.59
70421;SHT31;57848;51.938;15.520;2024-03-23T14:34:45;5.23;91.56
70421;SHT31;57848;51.938;15.520;2024-03-23T14:37:10;5.34;91.36
70421;SHT31;57848;51.938;15.520;2024-03-23T14:39:35;5.32;90.93
70421;SHT31;57848;51.938;15.520;2024-03-23T14:42:01;5.24;91.10
70421;SHT31;57848;51.938;15.520;2024-03-23T14:44:28;5.20;91.21
70421;SHT31;57848;51.938;15.520;2024-03-23T14:46:53;5.01;90.05
70421;SHT31;57848;51.938;15.520;2024-03-23T14:49:19;5.07;90.76
70421;SHT31;57848;51.938;15.520;2024-03-23T14:51:44;5.18;90.92
70421;SHT31;57848;51.938;15.520;2024-03-23T14:54:11;5.31;91.62
70421;SHT31;57848;51.938;15.520;2024-03-23T14:56:36;5.41;89.73
70421;SHT31;57848;51.938;15.520;2024-03-23T14:59:02;5.41;89.80
70421;SHT31;57848;51.938;15.520;2024-03-23T15:01:28;5.38;88.63
70421;SHT31;57848;51.938;15.520;2024-03-23T15:03:53;5.67;89.12
70421;SHT31;57848;51.938;15.520;2024-03-23T15:06:19;5.83;88.04
70421;SHT31;57848;51.938;15.520;2024-03-23T15:08:44;6.13;88.59
70421;SHT31;57848;51.938;15.520;2024-03-23T15:11:10;6.24;87.71
70421;SHT31;57848;51.938;15.520;2024-03-23T15:13:36;6.16;87.71
70421;SHT31;57848;51.938;15.520;2024-03-23T15:16:02;6.03;88.08
70421;SHT31;57848;51.938;15.520;2024-03-23T15:18:34;6.04;87.66
70421;SHT31;57848;51.938;15.520;2024-03-23T15:21:02;5.90;88.44
70421;SHT31;57848;51.938;15.520;2024-03-23T15:23:29;5.85;87.03
70421;SHT31;57848;51.938;15.520;2024-03-23T15:26:04;5.99;87.78
70421;SHT31;57848;51.938;15.520;2024-03-23T15:28:32;6.21;88.56
70421;SHT31;57848;51.938;15.520;2024-03-23T15:31:07;6.42;86.89
70421;SHT31;57848;51.938;15.520;2024-03-23T15:33:34;6.38;87.77
70421;SHT31;57848;51.938;15.520;2024-03-23T15:36:00;6.30;87.10
70421;SHT31;57848;51.938;15.520;2024-03-23T15:38:25;6.18;86.94
70421;SHT31;57848;51.938;15.520;2024-03-23T15:40:53;6.25;88.11
70421;SHT31;57848;51.938;15.520;2024-03-23T15:43:19;6.14;87.35
70421;SHT31;57848;51.938;15.520;2024-03-23T15:45:53;6.25;86.59
70421;SHT31;57848;51.938;15.520;2024-03-23T15:48:18;6.10;86.45
70421;SHT31;57848;51.938;15.520;2024-03-23T15:50:50;6.11;86.03
70421;SHT31;57848;51.938;15.520;2024-03-23T15:53:17;6.09;88.16
70421;SHT31;57848;51.938;15.520;2024-03-23T15:55:43;6.16;88.72
70421;SHT31;57848;51.938;15.520;2024-03-23T15:58:08;6.24;88.47
70421;SHT31;57848;51.938;15.520;2024-03-23T16:00:33;6.21;87.94
70421;SHT31;57848;51.938;15.520;2024-03-23T16:02:59;6.28;86.34
70421;SHT31;57848;51.938;15.520;2024-03-23T16:05:24;6.28;87.85
70421;SHT31;57848;51.938;15.520;2024-03-23T16:07:49;6.31;87.48
70421;SHT31;57848;51.938;15.520;2024-03-23T16:10:15;6.30;87.28
70421;SHT31;57848;51.938;15.520;2024-03-23T16:12:40;6.28;86.80
70421;SHT31;57848;51.938;15.520;2024-03-23T16:15:05;6.14;87.23
70421;SHT31;57848;51.938;15.520;2024-03-23T16:17:31;6.20;88.02
70421;SHT31;57848;51.938;15.520;2024-03-23T16:20:01;6.24;88.35
70421;SHT31;57848;51.938;15.520;2024-03-23T16:22:26;6.17;87.87
70421;SHT31;57848;51.938;15.520;2024-03-23T16:24:52;6.18;87.99
70421;SHT31;57848;51.938;15.520;2024-03-23T16:27:17;6.17;86.55
70421;SHT31;57848;51.938;15.520;2024-03-23T16:29:42;6.11;87.38